Time;durP1;ratioP1;P1;durP2;ratioP2;P2;SDS_P1;SDS_P2;PMS_P1;PMS_P2;Temp;Humidity;BMP_temperature;BMP_pressure;BME280_temperature;BME280_humidity;BME280_pressure;Samples;Min_cycle;Max_cycle;Signal;HPM_P1;HPM_P2
2023/01/11 00:01:42;;;;;;;24.38;9.07;;;8.40;99.90;;;;;;5056721;28;20051;-71
2023/01/11 00:04:08;;;;;;;27.92;9.82;;;8.50;99.90;;;;;;5074666;28;20397;-70
2023/01/11 00:06:34;;;;;;;29.00;8.70;;;8.50;99.90;;;;;;5074139;28;20417;-70
2023/01/11 00:08:59;;;;;;;28.27;9.40;;;8.50;99.90;;;;;;5073231;28;20095;-71
2023/01/11 00:11:25;;;;;;;28.25;9.07;;;8.60;99.90;;;;;;5090162;28;20110;-70
2023/01/11 00:13:52;;;;;;;28.45;9.55;;;8.60;99.90;;;;;;5074369;28;20053;-71
2023/01/11 00:16:18;;;;;;;23.58;7.43;;;8.60;99.90;;;;;;5074496;28;20135;-71
2023/01/11 00:18:44;;;;;;;26.23;8.90;;;8.60;99.90;;;;;;5074298;28;20131;-70
2023/01/11 00:21:10;;;;;;;25.73;8.30;;;8.70;99.90;;;;;;5074023;28;20392;-71
2023/01/11 00:23:36;;;;;;;28.30;8.55;;;8.60;99.90;;;;;;5057217;28;20052;-71
2023/01/11 00:26:06;;;;;;;29.52;8.73;;;8.60;99.90;;;;;;5074217;28;20119;-71
2023/01/11 00:28:32;;;;;;;27.80;8.73;;;8.70;99.90;;;;;;5074844;28;20432;-72
2023/01/11 00:30:58;;;;;;;25.70;7.10;;;8.70;99.90;;;;;;5056606;28;20041;-71
2023/01/11 00:33:24;;;;;;;26.48;9.07;;;8.70;99.90;;;;;;5073076;28;20102;-71
2023/01/11 00:35:51;;;;;;;29.30;8.95;;;8.70;99.90;;;;;;5073735;28;20092;-71
2023/01/11 00:47:55;;;;;;;25.70;8.07;;;8.80;99.90;;;;;;5074741;28;20051;-72
2023/01/11 00:49:17;;;;;;;29.05;8.77;;;8.80;99.90;;;;;;5074411;28;20045;-71
2023/01/11 00:51:43;;;;;;;32.63;9.77;;;8.80;99.90;;;;;;5072719;28;20106;-71
2023/01/11 00:54:09;;;;;;;35.88;12.63;;;8.80;99.90;;;;;;5072810;28;20115;-72
2023/01/11 00:56:35;;;;;;;26.85;9.00;;;8.90;99.90;;;;;;5073652;28;20056;-71
2023/01/11 00:59:01;;;;;;;22.15;7.20;;;8.90;99.90;;;;;;5055834;28;20048;-70
2023/01/11 01:01:27;;;;;;;32.35;10.38;;;8.90;99.90;;;;;;5073869;28;20499;-71
2023/01/11 01:03:53;;;;;;;28.10;8.93;;;9.00;99.90;;;;;;5074139;28;20106;-72
2023/01/11 01:06:19;;;;;;;27.52;9.15;;;8.90;99.90;;;;;;5072390;28;20084;-70
2023/01/11 01:08:44;;;;;;;28.52;9.77;;;8.90;99.90;;;;;;5072027;28;20059;-71
2023/01/11 01:11:10;;;;;;;27.92;9.45;;;8.90;99.90;;;;;;5073513;28;20055;-71
2023/01/11 01:16:20;;;;;;;27.27;8.00;;;9.00;99.90;;;;;;5074119;28;20131;-71
2023/01/11 01:18:46;;;;;;;36.35;9.07;;;9.10;99.90;;;;;;5072330;28;20083;-71
2023/01/11 01:21:11;;;;;;;23.55;7.47;;;9.10;99.90;;;;;;5073652;28;20048;-72
2023/01/11 01:23:37;;;;;;;36.60;10.43;;;9.10;99.90;;;;;;5073329;28;20473;-69
2023/01/11 01:26:04;;;;;;;31.27;9.95;;;9.20;99.90;;;;;;5072286;28;20045;-69
2023/01/11 01:28:30;;;;;;;;;;;9.20;99.90;;;;;;5073199;28;20123;-70
2023/01/11 01:30:56;;;;;;;34.00;10.03;;;9.20;99.90;;;;;;5073342;28;20039;-70
2023/01/11 01:33:22;;;;;;;32.20;10.40;;;9.20;99.90;;;;;;5076138;28;20392;-71
2023/01/11 01:35:48;;;;;;;30.48;9.32;;;9.20;99.90;;;;;;5076207;28;20052;-71
2023/01/11 01:38:14;;;;;;;30.40;9.70;;;9.20;99.90;;;;;;5078235;28;20110;-71
2023/01/11 01:40:45;;;;;;;32.60;10.82;;;9.20;99.90;;;;;;5077086;28;20423;-71
2023/01/11 01:43:13;;;;;;;22.67;7.78;;;9.20;99.90;;;;;;5077231;28;20040;-71
2023/01/11 01:45:40;;;;;;;36.20;9.25;;;9.30;99.90;;;;;;5077244;28;20049;-72
2023/01/11 01:48:10;;;;;;;30.17;9.43;;;9.30;99.90;;;;;;5077236;28;20044;-71
2023/01/11 01:50:40;;;;;;;32.85;10.45;;;9.30;99.90;;;;;;5076214;28;20091;-71
2023/01/11 01:53:34;;;;;;;26.15;8.52;;;9.30;99.90;;;;;;5093987;28;20083;-71
2023/01/11 01:56:02;;;;;;;31.00;8.77;;;9.30;99.90;;;;;;5077144;28;20040;-70
2023/01/11 01:58:33;;;;;;;27.05;7.47;;;9.40;99.90;;;;;;5059530;28;20049;-72
2023/01/11 02:01:45;;;;;;;30.70;8.27;;;9.40;99.90;;;;;;5075999;28;20177;-71
2023/01/11 02:03:46;;;;;;;29.90;9.17;;;9.40;99.90;;;;;;5076495;28;20052;-70
2023/01/11 02:06:12;;;;;;;36.97;9.18;;;9.40;99.90;;;;;;5059106;28;20051;-72
2023/01/11 02:08:42;;;;;;;32.88;7.95;;;9.40;99.90;;;;;;5076810;28;20044;-71
2023/01/11 02:11:28;;;;;;;32.83;9.32;;;9.40;99.90;;;;;;5076747;28;20084;-71
2023/01/11 02:14:01;;;;;;;31.70;9.20;;;9.50;99.90;;;;;;5076666;28;20052;-72
2023/01/11 02:16:27;;;;;;;32.42;8.63;;;9.50;99.90;;;;;;5077576;28;20045;-72
2023/01/11 02:18:55;;;;;;;31.67;8.90;;;9.50;99.90;;;;;;5076278;28;20128;-73
2023/01/11 02:21:36;;;;;;;30.95;8.25;;;9.50;99.90;;;;;;5075562;28;20074;-72
2023/01/11 02:24:20;;;;;;;31.38;9.57;;;9.60;99.90;;;;;;5076110;28;20350;-71
2023/01/11 02:27:09;;;;;;;31.13;10.05;;;9.60;99.90;;;;;;5077397;28;20049;-72
2023/01/11 02:29:44;;;;;;;30.13;9.82;;;9.60;99.90;;;;;;5076867;28;20428;-72
2023/01/11 02:32:22;;;;;;;31.60;9.90;;;9.70;99.90;;;;;;5058827;28;20488;-71
2023/01/11 02:35:00;;;;;;;24.17;6.95;;;9.70;99.90;;;;;;5110106;28;20139;-72
2023/01/11 02:37:44;;;;;;;25.63;8.02;;;9.70;99.90;;;;;;5075701;28;20047;-72
2023/01/11 02:40:47;;;;;;;26.52;7.78;;;9.70;99.90;;;;;;5074919;28;20044;-72
2023/01/11 02:46:20;;;;;;;28.15;7.88;;;9.70;99.90;;;;;;5076216;28;20049;-73
2023/01/11 02:49:09;;;;;;;23.30;7.22;;;9.70;99.90;;;;;;5077025;28;20051;-72
2023/01/11 02:52:11;;;;;;;22.33;6.82;;;9.80;99.90;;;;;;5076991;28;20498;-71
2023/01/11 02:54:43;;;;;;;19.95;7.18;;;9.80;99.90;;;;;;5076158;28;20056;-69
2023/01/11 02:57:10;;;;;;;26.73;8.32;;;9.80;99.90;;;;;;5074898;28;20058;-72
2023/01/11 02:59:38;;;;;;;23.17;6.03;;;9.80;99.90;;;;;;5076367;28;20434;-71
2023/01/11 03:02:04;;;;;;;23.13;7.57;;;9.80;99.90;;;;;;5076034;28;20123;-71
2023/01/11 03:04:32;;;;;;;25.30;6.25;;;9.80;99.90;;;;;;5075020;28;20153;-72
2023/01/11 03:07:08;;;;;;;18.45;6.05;;;9.80;99.90;;;;;;5074370;28;20048;-72
2023/01/11 03:09:41;;;;;;;20.48;6.68;;;9.80;99.90;;;;;;5075835;28;20065;-71
2023/01/11 03:12:50;;;;;;;19.00;6.18;;;9.90;99.90;;;;;;5075316;28;20044;-71
2023/01/11 03:15:29;;;;;;;23.45;6.18;;;9.80;99.90;;;;;;5057498;28;20049;-71
2023/01/11 03:18:09;;;;;;;20.58;5.40;;;9.80;99.90;;;;;;5076539;28;20381;-71
2023/01/11 03:20:49;;;;;;;23.27;5.95;;;9.90;99.90;;;;;;5075432;28;20051;-71
2023/01/11 03:23:23;;;;;;;19.27;5.60;;;9.90;99.90;;;;;;5075016;28;20048;-72
2023/01/11 03:26:00;;;;;;;18.42;5.30;;;9.90;99.90;;;;;;5075226;28;20472;-71
2023/01/11 03:28:42;;;;;;;23.58;5.60;;;9.90;99.90;;;;;;5075513;28;20117;-72
2023/01/11 03:31:21;;;;;;;19.67;5.35;;;9.90;99.90;;;;;;5075176;28;20484;-72
2023/01/11 03:34:08;;;;;;;18.02;4.93;;;9.90;99.90;;;;;;5075565;28;20048;-72
2023/01/11 03:37:05;;;;;;;15.27;4.80;;;9.90;99.90;;;;;;5076084;28;20040;-71
2023/01/11 03:39:45;;;;;;;15.30;5.05;;;10.00;99.90;;;;;;5074377;28;20049;-72
2023/01/11 03:42:14;;;;;;;14.02;4.13;;;10.00;99.90;;;;;;5057713;28;20077;-72
2023/01/11 03:44:44;;;;;;;13.52;3.92;;;10.00;99.90;;;;;;5074420;28;20049;-71
2023/01/11 03:47:13;;;;;;;13.10;3.63;;;10.00;99.90;;;;;;5075908;28;20041;-72
2023/01/11 03:49:47;;;;;;;12.77;3.47;;;10.00;99.90;;;;;;5076064;28;20044;-72
2023/01/11 03:52:16;;;;;;;10.63;2.95;;;10.10;99.90;;;;;;5075025;28;20054;-73
2023/01/11 03:54:44;;;;;;;10.35;2.60;;;10.10;99.90;;;;;;5057298;28;20048;-70
2023/01/11 03:57:20;;;;;;;8.73;2.45;;;10.10;99.90;;;;;;5074031;28;20063;-70
2023/01/11 03:59:47;;;;;;;9.45;2.55;;;10.10;99.90;;;;;;5073997;28;20044;-71
2023/01/11 04:02:18;;;;;;;9.13;1.73;;;10.20;99.90;;;;;;5074174;28;20049;-73
2023/01/11 04:04:44;;;;;;;8.15;1.80;;;10.20;99.90;;;;;;5075855;28;20051;-70
2023/01/11 04:07:10;;;;;;;8.73;2.33;;;10.20;99.90;;;;;;5074123;28;20530;-70
2023/01/11 04:09:36;;;;;;;7.18;1.77;;;10.20;99.90;;;;;;5074454;28;20056;-70
2023/01/11 04:12:02;;;;;;;8.77;1.60;;;10.20;99.90;;;;;;5091180;28;20048;-73
2023/01/11 04:14:27;;;;;;;9.38;1.83;;;10.20;99.90;;;;;;5075173;28;20132;-72
2023/01/11 04:16:53;;;;;;;7.63;1.75;;;10.30;99.90;;;;;;5074885;28;20063;-71
2023/01/11 04:19:19;;;;;;;7.97;1.83;;;10.30;99.90;;;;;;5074164;28;20456;-72
2023/01/11 04:21:44;;;;;;;7.70;1.80;;;10.30;99.90;;;;;;5073836;28;20136;-74
2023/01/11 04:24:12;;;;;;;6.95;1.85;;;10.30;99.90;;;;;;5057680;28;20131;-71
2023/01/11 04:26:38;;;;;;;9.15;1.67;;;10.30;99.90;;;;;;5074939;28;20492;-72
2023/01/11 04:29:04;;;;;;;8.38;2.22;;;10.30;99.90;;;;;;5075259;28;20052;-72
2023/01/11 04:31:31;;;;;;;6.65;1.77;;;10.30;99.90;;;;;;5074312;28;20052;-74
2023/01/11 04:33:56;;;;;;;8.23;2.13;;;10.30;99.90;;;;;;5058345;28;20045;-72
2023/01/11 04:36:22;;;;;;;9.70;2.10;;;10.30;99.90;;;;;;5075034;28;20051;-72
2023/01/11 04:38:48;;;;;;;9.15;2.10;;;10.30;99.90;;;;;;5041211;28;20044;-71
2023/01/11 04:43:58;;;;;;;10.70;2.53;;;10.30;99.90;;;;;;5046466;28;20055;-73
2023/01/11 04:46:23;;;;;;;13.60;2.92;;;10.30;99.90;;;;;;5057571;28;20380;-71
2023/01/11 04:48:49;;;;;;;17.77;3.60;;;10.30;99.90;;;;;;5074015;28;20047;-72
2023/01/11 04:51:15;;;;;;;12.85;3.22;;;10.40;99.90;;;;;;5073703;28;20054;-72
2023/01/11 04:53:41;;;;;;;18.08;4.07;;;10.40;99.90;;;;;;5074164;28;20131;-73
2023/01/11 04:56:08;;;;;;;16.20;4.10;;;10.40;99.90;;;;;;5090515;28;20045;-71
2023/01/11 04:58:36;;;;;;;26.67;4.95;;;10.40;99.90;;;;;;5073566;28;20050;-71
2023/01/11 05:01:10;;;;;;;20.92;4.90;;;10.40;99.90;;;;;;5073144;28;20075;-70
2023/01/11 05:03:36;;;;;;;21.10;5.25;;;10.40;99.90;;;;;;5073480;28;20053;-71
2023/01/11 05:06:02;;;;;;;20.77;5.65;;;10.40;99.90;;;;;;5072928;28;20047;-71
2023/01/11 05:08:29;;;;;;;28.15;6.40;;;10.40;99.90;;;;;;5105746;28;20041;-71
2023/01/11 05:10:58;;;;;;;22.48;5.63;;;10.40;99.90;;;;;;5057414;28;20426;-73
2023/01/11 05:13:42;;;;;;;22.02;6.07;;;10.50;99.90;;;;;;5072783;28;20056;-72
2023/01/11 05:16:12;;;;;;;28.35;7.18;;;10.50;99.90;;;;;;5073329;28;20041;-72
2023/01/11 05:18:42;;;;;;;35.13;6.95;;;10.50;99.90;;;;;;5074012;28;20120;-72
2023/01/11 05:21:11;;;;;;;33.15;6.97;;;10.50;99.90;;;;;;5073077;28;20041;-71
2023/01/11 05:23:38;;;;;;;35.83;7.32;;;10.50;99.90;;;;;;5072928;28;20091;-71
2023/01/11 05:26:19;;;;;;;38.30;7.63;;;10.50;99.90;;;;;;5074611;28;20044;-72
2023/01/11 05:28:45;;;;;;;31.75;7.00;;;10.50;99.90;;;;;;5073905;28;20055;-71
2023/01/11 05:31:11;;;;;;;36.03;6.82;;;10.50;99.90;;;;;;5072468;28;20037;-72
2023/01/11 05:33:37;;;;;;;31.50;6.68;;;10.50;99.90;;;;;;5072310;28;20049;-72
2023/01/11 05:36:06;;;;;;;36.40;7.03;;;10.50;99.90;;;;;;5056735;28;20067;-70
2023/01/11 05:38:32;;;;;;;32.97;6.20;;;10.50;99.90;;;;;;5072234;28;20052;-72
2023/01/11 05:41:00;;;;;;;38.15;6.50;;;10.50;99.90;;;;;;5072247;28;20040;-72
2023/01/11 05:43:27;;;;;;;45.72;5.47;;;10.40;99.90;;;;;;5072308;28;20123;-73
2023/01/11 05:45:53;;;;;;;43.28;6.55;;;10.40;99.90;;;;;;5072557;28;20052;-72
2023/01/11 05:48:19;;;;;;;47.05;5.63;;;10.40;99.90;;;;;;5072423;28;20048;-72
2023/01/11 05:50:52;;;;;;;39.88;4.65;;;10.40;99.90;;;;;;5055637;28;20205;-72
2023/01/11 05:53:18;;;;;;;39.38;4.30;;;10.30;99.90;;;;;;5073198;28;20052;-73
2023/01/11 05:55:55;;;;;;;37.72;4.10;;;10.30;99.90;;;;;;5073542;28;20032;-72
2023/01/11 05:58:21;;;;;;;49.65;3.90;;;10.20;99.90;;;;;;5055655;28;20075;-72
2023/01/11 06:00:54;;;;;;;43.97;4.47;;;10.20;99.90;;;;;;5074117;28;20044;-71
2023/01/11 06:03:22;;;;;;;49.97;4.45;;;10.20;99.90;;;;;;5072059;28;20274;-72
2023/01/11 06:05:48;;;;;;;47.35;3.58;;;10.20;99.90;;;;;;5073105;28;20080;-73
2023/01/11 06:08:14;;;;;;;47.92;3.63;;;10.20;99.90;;;;;;5072861;28;20098;-72
2023/01/11 06:10:40;;;;;;;40.20;4.00;;;10.20;99.90;;;;;;5073029;28;20041;-72
2023/01/11 06:15:51;;;;;;;47.13;3.05;;;10.10;99.90;;;;;;5073862;28;20106;-72
2023/01/11 06:18:16;;;;;;;43.90;3.88;;;10.10;99.90;;;;;;5074175;28;20037;-72
2023/01/11 06:20:42;;;;;;;48.08;4.80;;;10.10;99.90;;;;;;5075481;28;20047;-72
2023/01/11 06:23:08;;;;;;;41.42;3.88;;;10.10;99.90;;;;;;5076767;28;20044;-71
2023/01/11 06:25:36;;;;;;;40.72;4.05;;;10.00;99.90;;;;;;5076754;28;20044;-72
2023/01/11 06:28:05;;;;;;;42.30;4.85;;;10.00;99.90;;;;;;5075628;28;20178;-73
2023/01/11 06:30:31;;;;;;;46.35;4.45;;;9.90;99.90;;;;;;5077783;28;20047;-71
2023/01/11 06:33:04;;;;;;;52.40;4.13;;;9.90;99.90;;;;;;5077078;28;20392;-71
2023/01/11 06:35:40;;;;;;;53.72;4.82;;;9.90;99.90;;;;;;5043924;28;20098;-72
2023/01/11 06:38:11;;;;;;;60.92;5.03;;;9.90;99.90;;;;;;5077332;28;20558;-71
2023/01/11 06:40:39;;;;;;;43.83;4.25;;;9.90;99.90;;;;;;5058880;28;20041;-72
2023/01/11 06:43:05;;;;;;;36.55;3.55;;;9.90;99.90;;;;;;5059699;28;20060;-73
2023/01/11 06:45:31;;;;;;;51.20;4.20;;;9.90;99.90;;;;;;5060072;28;20048;-72
2023/01/11 06:47:57;;;;;;;50.72;4.50;;;9.90;99.90;;;;;;5077534;28;20332;-71
2023/01/11 06:50:24;;;;;;;43.63;3.92;;;9.90;99.90;;;;;;5075944;28;20066;-71
2023/01/11 06:52:57;;;;;;;56.60;5.78;;;9.90;99.90;;;;;;5076714;28;20048;-72
2023/01/11 06:55:26;;;;;;;46.65;4.82;;;9.90;99.90;;;;;;5076522;28;20048;-72
2023/01/11 06:57:52;;;;;;;46.28;4.20;;;9.90;99.90;;;;;;5058937;28;20124;-71
2023/01/11 07:00:19;;;;;;;56.28;4.40;;;9.90;99.90;;;;;;5074720;28;20076;-72
2023/01/11 07:02:46;;;;;;;47.70;4.32;;;9.90;99.90;;;;;;5076799;28;20048;-73
2023/01/11 07:05:12;;;;;;;55.50;4.72;;;9.90;99.90;;;;;;5076078;28;20051;-71
2023/01/11 07:07:39;;;;;;;46.35;4.75;;;9.90;99.90;;;;;;5076809;28;20132;-71
2023/01/11 07:10:10;;;;;;;40.45;4.28;;;9.80;99.90;;;;;;5075250;28;20103;-73
2023/01/11 07:12:37;;;;;;;34.00;3.60;;;9.90;99.90;;;;;;5076538;28;20101;-73
2023/01/11 07:15:05;;;;;;;48.53;6.47;;;9.80;99.90;;;;;;5075721;28;20041;-73
2023/01/11 07:17:31;;;;;;;50.92;4.45;;;9.80;99.90;;;;;;5076387;28;20283;-73
2023/01/11 07:19:57;;;;;;;65.07;5.55;;;9.80;99.90;;;;;;5076469;28;20063;-71
2023/01/11 07:22:22;;;;;;;46.65;4.40;;;9.80;99.90;;;;;;5076373;28;20536;-72
2023/01/11 07:24:49;;;;;;;49.33;4.28;;;9.80;99.90;;;;;;5076714;28;20087;-72
2023/01/11 07:27:15;;;;;;;57.92;4.05;;;9.90;99.90;;;;;;5075424;28;20071;-72
2023/01/11 07:29:40;;;;;;;52.83;5.90;;;9.90;99.90;;;;;;5074392;28;20048;-73
2023/01/11 07:32:07;;;;;;;48.03;5.53;;;10.00;99.90;;;;;;5058572;28;20040;-71
2023/01/11 07:34:33;;;;;;;51.15;5.50;;;10.00;99.90;;;;;;5058389;28;20044;-73
2023/01/11 07:36:59;;;;;;;53.40;4.97;;;9.90;99.90;;;;;;5076303;28;20052;-71
2023/01/11 07:39:25;;;;;;;53.97;5.00;;;9.90;99.90;;;;;;5075847;28;20048;-72
2023/01/11 07:44:35;;;;;;;64.07;5.25;;;9.90;99.90;;;;;;5075795;28;20048;-73
2023/01/11 07:47:00;;;;;;;35.70;4.32;;;9.80;99.90;;;;;;5074696;28;20052;-72
2023/01/11 07:49:26;;;;;;;43.55;3.92;;;9.80;99.90;;;;;;5075886;28;20412;-74
2023/01/11 07:51:52;;;;;;;51.40;4.82;;;9.70;99.90;;;;;;5058143;28;20093;-72
2023/01/11 07:54:18;;;;;;;40.22;4.53;;;9.70;99.90;;;;;;5074944;28;20131;-72
2023/01/11 07:56:44;;;;;;;38.72;3.30;;;9.60;99.90;;;;;;5058902;28;20116;-71
2023/01/11 07:59:10;;;;;;;32.05;3.17;;;9.60;99.90;;;;;;5075909;28;20045;-72
2023/01/11 08:01:36;;;;;;;36.05;3.15;;;9.50;99.90;;;;;;5058215;28;20044;-73
2023/01/11 08:04:02;;;;;;;36.60;3.75;;;9.50;99.90;;;;;;5074700;28;20040;-73
2023/01/11 08:06:28;;;;;;;37.63;3.90;;;9.40;99.90;;;;;;5058010;28;20112;-73
2023/01/11 08:08:54;;;;;;;43.58;3.83;;;9.40;99.90;;;;;;5075566;28;20432;-73
2023/01/11 08:16:48;;;;;;;28.38;2.92;;;9.20;99.90;;;;;;5075497;28;20048;-71
2023/01/11 08:19:14;;;;;;;44.63;3.50;;;9.10;99.90;;;;;;5057974;28;20106;-72
2023/01/11 08:21:43;;;;;;;39.50;3.22;;;9.10;99.90;;;;;;5057871;28;20047;-72
2023/01/11 08:24:09;;;;;;;41.70;4.20;;;9.10;99.90;;;;;;5074480;28;20052;-72
2023/01/11 08:26:35;;;;;;;28.45;3.13;;;9.00;99.90;;;;;;5074440;28;20082;-72
2023/01/11 08:29:00;;;;;;;41.85;4.10;;;9.00;99.90;;;;;;5057588;28;20051;-71
2023/01/11 08:31:26;;;;;;;39.53;3.60;;;9.00;99.90;;;;;;5074049;28;20032;-70
2023/01/11 08:33:52;;;;;;;52.88;4.03;;;8.90;99.90;;;;;;5074480;28;20080;-72
2023/01/11 08:36:18;;;;;;;42.88;3.72;;;8.90;99.90;;;;;;5074563;28;20059;-73
2023/01/11 08:38:44;;;;;;;41.50;3.45;;;8.90;99.90;;;;;;5075186;28;20055;-72
2023/01/11 08:41:09;;;;;;;38.25;4.20;;;8.80;99.90;;;;;;5076109;28;20144;-72
2023/01/11 08:43:36;;;;;;;46.60;4.50;;;8.80;99.90;;;;;;5108466;28;20476;-71
2023/01/11 08:46:02;;;;;;;46.70;4.85;;;8.90;99.90;;;;;;5073259;28;20051;-73
2023/01/11 08:48:28;;;;;;;46.92;4.20;;;8.90;99.90;;;;;;5073954;28;20131;-72
2023/01/11 08:50:53;;;;;;;53.85;5.88;;;8.90;99.90;;;;;;5040088;28;20378;-72
2023/01/11 08:53:22;;;;;;;53.70;4.72;;;9.00;99.90;;;;;;5057025;28;20052;-72
2023/01/11 08:55:49;;;;;;;35.67;4.38;;;9.10;99.90;;;;;;5040457;28;20045;-73
2023/01/11 08:58:15;;;;;;;37.13;4.30;;;9.20;99.90;;;;;;5073453;28;20082;-73
2023/01/11 09:00:41;;;;;;;41.63;4.90;;;9.20;99.90;;;;;;5073573;28;20044;-72
2023/01/11 09:03:07;;;;;;;36.15;4.72;;;9.20;99.90;;;;;;5074959;28;20040;-71
2023/01/11 09:05:33;;;;;;;41.83;4.63;;;9.20;99.90;;;;;;5074838;28;20052;-71
2023/01/11 09:07:59;;;;;;;38.80;5.00;;;9.20;99.90;;;;;;5072761;28;20074;-71
2023/01/11 09:10:25;;;;;;;40.80;4.35;;;9.10;99.90;;;;;;5072107;28;20048;-72
2023/01/11 09:12:55;;;;;;;37.03;3.92;;;9.10;99.90;;;;;;5073709;28;20036;-71
2023/01/11 09:15:22;;;;;;;50.40;3.47;;;9.00;99.90;;;;;;5074265;28;20052;-71
2023/01/11 09:17:49;;;;;;;34.38;3.55;;;9.00;99.90;;;;;;5073939;28;20048;-72
2023/01/11 09:20:15;;;;;;;46.03;4.57;;;8.90;99.90;;;;;;5072870;28;20511;-71
2023/01/11 09:22:45;;;;;;;33.55;3.97;;;8.90;99.90;;;;;;5073895;28;20056;-73
2023/01/11 09:25:12;;;;;;;38.38;3.63;;;8.80;99.90;;;;;;5074422;28;20041;-71
2023/01/11 09:27:41;;;;;;;40.88;3.67;;;8.70;99.90;;;;;;5056394;28;20053;-73
2023/01/11 09:30:08;;;;;;;36.50;3.33;;;8.60;99.90;;;;;;5072634;28;20056;-72
2023/01/11 09:32:34;;;;;;;37.08;4.15;;;8.50;99.90;;;;;;5039108;28;20493;-73
2023/01/11 09:35:00;;;;;;;42.63;3.97;;;8.50;99.90;;;;;;5073360;28;20044;-72
2023/01/11 09:37:26;;;;;;;26.90;3.13;;;8.40;99.90;;;;;;5074001;28;20088;-71
2023/01/11 09:39:52;;;;;;;29.77;2.90;;;8.30;99.90;;;;;;5055385;28;20091;-72
2023/01/11 09:42:33;;;;;;;31.70;2.90;;;8.30;99.90;;;;;;5040236;28;20102;-72
2023/01/11 09:45:17;;;;;;;37.38;4.00;;;8.30;99.90;;;;;;5056198;28;20052;-71
2023/01/11 09:48:03;;;;;;;36.33;3.47;;;8.20;99.90;;;;;;5055582;28;20083;-71
2023/01/11 09:50:32;;;;;;;37.45;3.55;;;8.20;99.90;;;;;;5074295;28;20044;-71
2023/01/11 09:53:07;;;;;;;38.33;3.90;;;8.20;99.90;;;;;;5055416;28;20520;-71
2023/01/11 09:55:41;;;;;;;39.88;3.75;;;8.20;99.90;;;;;;5060383;28;20136;-71
2023/01/11 09:58:25;;;;;;;39.45;3.47;;;8.20;99.90;;;;;;5077463;28;20123;-72
2023/01/11 10:00:53;;;;;;;35.88;3.75;;;8.30;99.90;;;;;;5076175;28;20040;-71
2023/01/11 10:03:57;;;;;;;49.67;4.45;;;8.40;99.90;;;;;;5076299;28;20044;-71
2023/01/11 10:06:51;;;;;;;41.47;4.00;;;8.60;99.90;;;;;;5076944;28;20052;-71
2023/01/11 10:09:23;;;;;;;26.45;3.15;;;8.70;99.90;;;;;;5077409;28;20140;-71
2023/01/11 10:11:51;;;;;;;30.38;3.70;;;8.80;99.90;;;;;;5076330;28;20052;-72
2023/01/11 10:14:41;;;;;;;38.45;4.18;;;8.90;99.90;;;;;;5075570;28;20074;-71
2023/01/11 10:17:22;;;;;;;41.40;4.53;;;9.00;99.90;;;;;;5076814;28;20055;-71
2023/01/11 10:20:02;;;;;;;42.40;5.57;;;9.20;99.90;;;;;;5076418;28;20118;-72
2023/01/11 10:22:40;;;;;;;52.08;5.00;;;9.40;99.90;;;;;;5076697;28;20044;-72
2023/01/11 10:25:15;;;;;;;41.30;4.38;;;9.50;99.90;;;;;;5075602;28;20502;-71
2023/01/11 10:27:59;;;;;;;30.70;4.72;;;9.50;99.90;;;;;;5077078;28;20123;-73
2023/01/11 10:33:24;;;;;;;43.85;4.68;;;9.50;99.90;;;;;;5076269;28;20055;-71
2023/01/11 10:41:56;;;;;;;46.42;5.10;;;9.70;99.90;;;;;;5075150;28;20049;-72
2023/01/11 10:45:05;;;;;;;33.75;4.22;;;9.80;99.90;;;;;;5075521;28;20048;-71
2023/01/11 10:47:40;;;;;;;32.50;4.38;;;9.90;99.90;;;;;;5069298;28;20052;-71
2023/01/11 10:50:30;;;;;;;44.55;4.47;;;9.90;99.90;;;;;;5076619;28;20051;-72
2023/01/11 10:53:16;;;;;;;33.47;3.83;;;9.90;99.90;;;;;;5075746;28;20493;-72
2023/01/11 10:56:15;;;;;;;40.45;4.15;;;9.90;99.90;;;;;;5075132;28;20531;-72
2023/01/11 10:58:52;;;;;;;42.17;3.90;;;9.80;99.90;;;;;;5075521;28;20055;-71
2023/01/11 11:01:31;;;;;;;33.55;3.92;;;9.80;99.90;;;;;;5075981;28;20105;-72
2023/01/11 11:04:09;;;;;;;34.55;4.00;;;9.70;99.90;;;;;;5076390;28;20052;-73
2023/01/11 11:06:43;;;;;;;42.15;3.47;;;9.70;99.90;;;;;;5056835;28;20139;-71
2023/01/11 11:09:12;;;;;;;35.05;2.90;;;9.70;99.90;;;;;;5074268;28;20056;-72
2023/01/11 11:11:45;;;;;;;36.70;4.25;;;9.60;99.90;;;;;;5076388;28;20113;-72
2023/01/11 11:14:28;;;;;;;48.17;5.32;;;9.60;99.90;;;;;;5074565;28;20048;-72
2023/01/11 11:17:18;;;;;;;38.03;3.83;;;9.60;99.90;;;;;;5074682;28;20047;-74
2023/01/11 11:19:44;;;;;;;38.03;3.50;;;9.70;99.90;;;;;;5074482;28;20602;-73
2023/01/11 11:22:11;;;;;;;28.90;3.20;;;9.80;99.90;;;;;;5057858;28;20048;-72
2023/01/11 11:24:46;;;;;;;39.38;4.72;;;9.90;99.90;;;;;;5075589;28;20127;-72
2023/01/11 11:27:38;;;;;;;46.10;4.22;;;10.00;99.90;;;;;;5074964;28;20055;-74
2023/01/11 11:30:08;;;;;;;37.65;4.35;;;10.00;99.90;;;;;;5073683;28;20087;-72
2023/01/11 11:32:41;;;;;;;37.30;4.28;;;10.00;99.90;;;;;;5074689;28;20110;-73
2023/01/11 11:35:35;;;;;;;41.97;4.13;;;10.00;99.90;;;;;;5057513;28;20165;-74
2023/01/11 11:38:01;;;;;;;47.17;3.67;;;9.90;99.90;;;;;;5074204;28;20055;-73
2023/01/11 11:40:35;;;;;;;37.45;3.67;;;9.80;99.90;;;;;;5090884;28;20044;-73
2023/01/11 11:43:20;;;;;;;47.08;3.65;;;9.80;99.90;;;;;;5057454;28;20085;-73
2023/01/11 11:45:55;;;;;;;40.70;3.45;;;9.90;99.90;;;;;;5075040;28;20091;-72
2023/01/11 11:48:22;;;;;;;41.00;3.90;;;10.00;99.90;;;;;;5073417;28;20059;-72
2023/01/11 11:50:49;;;;;;;30.10;2.95;;;9.90;99.90;;;;;;5074919;28;20037;-74
2023/01/11 11:53:24;;;;;;;;;;;9.90;99.90;;;;;;5074062;28;20114;-74
2023/01/11 11:55:50;;;;;;;27.55;2.47;;;9.80;99.90;;;;;;5073611;28;19921;-72
2023/01/11 11:58:21;;;;;;;40.00;3.33;;;9.80;99.90;;;;;;5056890;28;20512;-73
2023/01/11 12:00:51;;;;;;;31.33;2.47;;;9.70;99.90;;;;;;5074108;28;20040;-72
2023/01/11 12:03:24;;;;;;;50.63;5.10;;;9.60;99.90;;;;;;5073469;28;20048;-72
2023/01/11 12:05:54;;;;;;;42.47;4.50;;;9.60;99.90;;;;;;5075061;28;20044;-71
2023/01/11 12:08:23;;;;;;;37.03;3.42;;;9.60;99.90;;;;;;5056541;28;20131;-73
2023/01/11 12:10:56;;;;;;;35.60;3.25;;;9.50;99.90;;;;;;5073452;28;20117;-73
2023/01/11 12:13:34;;;;;;;36.30;4.10;;;9.50;99.90;;;;;;5056932;28;20166;-71
2023/01/11 12:16:04;;;;;;;30.67;2.55;;;9.60;99.90;;;;;;5073549;28;20049;-71
2023/01/11 12:18:41;;;;;;;42.33;3.40;;;9.60;99.90;;;;;;5074799;28;20112;-71
2023/01/11 12:21:31;;;;;;;39.85;2.72;;;9.70;99.90;;;;;;5072781;28;20043;-72
2023/01/11 12:24:06;;;;;;;65.72;5.85;;;9.80;99.90;;;;;;5074357;28;20115;-73
2023/01/11 12:26:42;;;;;;;53.55;4.75;;;9.90;99.90;;;;;;5073112;28;20049;-71
2023/01/11 12:29:25;;;;;;;30.25;2.65;;;9.90;99.90;;;;;;5073794;28;20040;-72
2023/01/11 12:31:58;;;;;;;26.77;1.98;;;9.90;99.90;;;;;;5074423;28;20121;-73
2023/01/11 12:34:57;;;;;;;24.52;2.17;;;9.90;99.90;;;;;;5056242;28;20055;-71
2023/01/11 12:37:31;;;;;;;36.35;2.80;;;9.90;99.90;;;;;;5073931;28;20459;-72
2023/01/11 12:40:03;;;;;;;44.42;3.35;;;9.80;99.90;;;;;;5074139;28;20118;-72
2023/01/11 12:42:47;;;;;;;41.35;3.00;;;9.90;99.90;;;;;;5074245;28;20071;-74
2023/01/11 12:45:35;;;;;;;34.80;2.90;;;10.00;99.90;;;;;;5056429;28;20045;-71
2023/01/11 12:48:09;;;;;;;37.83;2.92;;;10.00;99.90;;;;;;5056208;28;20062;-73
2023/01/11 12:51:02;;;;;;;30.42;2.35;;;9.90;99.90;;;;;;5074502;28;20049;-71
2023/01/11 12:53:46;;;;;;;31.65;2.97;;;9.80;99.90;;;;;;5106557;28;20123;-72
2023/01/11 12:56:31;;;;;;;33.33;4.50;;;9.70;99.90;;;;;;5072561;28;20051;-73
2023/01/11 12:59:27;;;;;;;39.45;4.15;;;9.70;99.90;;;;;;5074179;28;20097;-73
2023/01/11 13:02:12;;;;;;;30.95;2.53;;;9.70;99.90;;;;;;5074168;28;20476;-72
2023/01/11 13:04:46;;;;;;;30.58;2.80;;;9.90;99.90;;;;;;5072945;28;20040;-71
2023/01/11 13:07:56;;;;;;;37.45;3.55;;;10.00;99.90;;;;;;5072298;28;20052;-71
2023/01/11 13:10:53;;;;;;;23.88;1.90;;;10.30;99.90;;;;;;5067645;28;20086;-72
2023/01/11 13:13:34;;;;;;;42.33;4.28;;;10.40;99.90;;;;;;5072140;28;20048;-71
2023/01/11 13:16:12;;;;;;;33.75;3.10;;;10.50;99.90;;;;;;5073343;28;20369;-71
2023/01/11 13:18:57;;;;;;;43.88;4.35;;;10.50;99.90;;;;;;5073429;28;20049;-72
2023/01/11 13:21:52;;;;;;;31.90;3.30;;;10.50;99.90;;;;;;5072956;28;20055;-72
2023/01/11 13:24:30;;;;;;;42.88;3.55;;;10.50;99.90;;;;;;5053521;28;20515;-71
2023/01/11 13:27:10;;;;;;;32.25;3.83;;;10.30;99.90;;;;;;5072730;28;20127;-72
2023/01/11 13:29:41;;;;;;;32.90;3.28;;;10.30;99.90;;;;;;5073084;28;20036;-72
2023/01/11 13:32:14;;;;;;;37.85;3.90;;;10.20;99.90;;;;;;5073386;28;20036;-71
2023/01/11 13:34:46;;;;;;;31.58;2.47;;;10.10;99.90;;;;;;5073299;28;20369;-72
2023/01/11 13:37:40;;;;;;;29.65;2.53;;;10.00;99.90;;;;;;5073240;28;20055;-72
2023/01/11 13:40:24;;;;;;;37.55;3.95;;;10.00;99.90;;;;;;5073299;28;20067;-72
2023/01/11 13:43:02;;;;;;;33.50;2.83;;;9.80;99.90;;;;;;5073554;28;20049;-71
2023/01/11 13:45:35;;;;;;;31.98;2.60;;;9.70;99.90;;;;;;5089796;28;20115;-72
2023/01/11 13:48:26;;;;;;;31.65;3.08;;;9.70;99.90;;;;;;5071992;28;20044;-71